createdAt,value
2024-03-24T00:00:38.939Z,1.40
2024-03-24T00:03:26.472Z,1.90
2024-03-24T00:05:54.184Z,1.30
2024-03-24T00:08:21.870Z,1.60
2024-03-24T00:10:50.018Z,1.50
2024-03-24T00:13:17.752Z,1.50
2024-03-24T00:15:45.526Z,2.30
2024-03-24T00:18:13.082Z,1.30
2024-03-24T00:20:40.659Z,1.80
2024-03-24T00:23:11.186Z,1.60
2024-03-24T00:25:38.845Z,1.70
2024-03-24T00:28:06.638Z,1.80
2024-03-24T00:30:34.321Z,1.50
2024-03-24T00:33:01.950Z,1.60
2024-03-24T00:35:29.605Z,1.60
2024-03-24T00:37:57.287Z,1.40
2024-03-24T00:40:24.854Z,1.50
2024-03-24T00:42:52.425Z,1.60
2024-03-24T00:45:19.962Z,1.60
2024-03-24T00:47:47.586Z,2.20
2024-03-24T00:50:15.231Z,1.80
2024-03-24T00:52:42.885Z,2.00
2024-03-24T00:55:11.655Z,1.80
2024-03-24T00:57:39.248Z,2.00
2024-03-24T01:00:07.896Z,1.80
2024-03-24T01:02:35.481Z,1.40
2024-03-24T01:05:03.191Z,1.90
2024-03-24T01:07:31.907Z,1.70
2024-03-24T01:09:59.710Z,2.00
2024-03-24T01:12:28.198Z,1.50
2024-03-24T01:14:56.771Z,1.60
2024-03-24T01:17:24.531Z,1.50
2024-03-24T01:19:52.485Z,1.70
2024-03-24T01:22:20.108Z,1.60
2024-03-24T01:24:47.644Z,2.10
2024-03-24T01:27:15.982Z,1.90
2024-03-24T01:29:43.641Z,1.50
2024-03-24T01:32:11.290Z,1.70
2024-03-24T01:34:39.017Z,1.60
2024-03-24T01:37:06.617Z,1.90
2024-03-24T01:39:35.575Z,1.90
2024-03-24T01:42:03.363Z,1.70
2024-03-24T01:44:32.052Z,1.80
2024-03-24T01:46:59.636Z,1.70
2024-03-24T01:49:28.506Z,1.90
2024-03-24T01:51:56.130Z,1.70
2024-03-24T01:54:26.288Z,1.40
2024-03-24T01:56:53.910Z,1.60
2024-03-24T01:59:21.530Z,1.40
2024-03-24T02:01:49.190Z,2.20
2024-03-24T02:04:16.779Z,1.90
2024-03-24T02:06:44.354Z,1.40
2024-03-24T02:09:12.023Z,1.40
2024-03-24T02:11:39.585Z,1.50
2024-03-24T02:14:07.942Z,1.70
2024-03-24T02:16:35.586Z,1.70
2024-03-24T02:19:04.835Z,1.90
2024-03-24T02:21:32.420Z,1.40
2024-03-24T02:24:00.142Z,1.80
2024-03-24T02:26:27.760Z,1.50
2024-03-24T02:28:58.425Z,2.80
2024-03-24T02:31:26.140Z,1.60
2024-03-24T02:33:53.717Z,1.60
2024-03-24T02:36:21.295Z,1.80
2024-03-24T02:38:49.564Z,1.50
2024-03-24T02:41:17.114Z,1.90
2024-03-24T02:43:44.693Z,1.80
2024-03-24T02:46:12.280Z,2.00
2024-03-24T02:48:39.841Z,2.00
2024-03-24T02:51:09.186Z,1.80
2024-03-24T02:53:38.184Z,1.90
2024-03-24T02:56:06.510Z,1.80
2024-03-24T02:58:34.134Z,1.80
2024-03-24T03:01:01.728Z,1.50
2024-03-24T03:03:29.289Z,1.60
2024-03-24T03:05:56.892Z,2.20
2024-03-24T03:08:24.646Z,2.00
2024-03-24T03:10:52.178Z,1.80
2024-03-24T03:13:19.782Z,1.80
2024-03-24T03:15:47.341Z,2.00
2024-03-24T03:18:14.915Z,1.50
2024-03-24T03:20:43.847Z,1.70
2024-03-24T03:23:11.440Z,1.80
2024-03-24T03:25:39.000Z,2.10
2024-03-24T03:28:07.282Z,1.90
2024-03-24T03:30:35.198Z,1.90
2024-03-24T03:33:02.894Z,1.70
2024-03-24T03:35:30.730Z,1.40
2024-03-24T03:37:58.395Z,1.60
2024-03-24T03:40:25.969Z,1.90
2024-03-24T03:42:53.699Z,2.10
2024-03-24T03:45:24.969Z,1.90
2024-03-24T03:47:53.115Z,2.00
2024-03-24T03:50:21.391Z,1.90
2024-03-24T03:52:49.040Z,2.30
2024-03-24T03:55:17.904Z,1.80
2024-03-24T03:57:46.028Z,1.80
2024-03-24T04:00:14.209Z,1.70
2024-03-24T04:02:45.346Z,1.60
2024-03-24T04:05:12.886Z,1.90
2024-03-24T04:07:41.041Z,2.00
2024-03-24T04:10:09.069Z,1.60
2024-03-24T04:12:38.334Z,1.70
2024-03-24T04:15:06.569Z,1.90
2024-03-24T04:17:34.198Z,1.60
2024-03-24T04:20:06.253Z,2.20
2024-03-24T04:22:34.250Z,2.20
2024-03-24T04:25:01.852Z,2.20
2024-03-24T04:27:29.574Z,1.90
2024-03-24T04:29:57.144Z,1.90
2024-03-24T04:32:24.860Z,1.60
2024-03-24T04:34:52.854Z,1.70
2024-03-24T04:37:23.911Z,1.80
2024-03-24T04:39:51.542Z,2.60
2024-03-24T04:42:19.457Z,1.80
2024-03-24T04:44:47.011Z,1.70
2024-03-24T04:47:14.570Z,2.10
2024-03-24T04:49:42.612Z,1.90
2024-03-24T04:52:10.748Z,1.90
2024-03-24T04:54:38.508Z,1.70
2024-03-24T04:57:07.102Z,2.10
2024-03-24T04:59:35.337Z,2.10
2024-03-24T05:02:05.476Z,1.80
2024-03-24T05:04:33.042Z,2.70
2024-03-24T05:07:00.998Z,1.90
2024-03-24T05:09:28.610Z,1.90
2024-03-24T05:11:56.454Z,2.00
2024-03-24T05:14:25.159Z,1.70
2024-03-24T05:16:54.249Z,2.20
2024-03-24T05:19:21.834Z,1.70
2024-03-24T05:21:49.345Z,2.10
2024-03-24T05:24:16.895Z,2.10
2024-03-24T05:26:44.413Z,1.80
2024-03-24T05:29:12.002Z,1.40
2024-03-24T05:31:51.792Z,1.70
2024-03-24T05:34:19.339Z,2.40
2024-03-24T05:36:46.928Z,1.80
2024-03-24T05:39:14.469Z,1.80
2024-03-24T05:41:41.983Z,1.80
2024-03-24T05:44:09.521Z,1.70
2024-03-24T05:46:37.043Z,1.90
2024-03-24T05:49:04.680Z,2.00
2024-03-24T05:51:32.802Z,2.30
2024-03-24T05:54:00.367Z,1.80
2024-03-24T05:56:27.994Z,1.70
2024-03-24T05:58:55.512Z,1.90
2024-03-24T06:01:24.514Z,1.60
2024-03-24T06:03:52.382Z,1.70
2024-03-24T06:06:20.356Z,1.90
2024-03-24T06:08:47.905Z,1.70
2024-03-24T06:11:15.457Z,1.70
2024-03-24T06:13:43.052Z,1.70
2024-03-24T06:16:12.026Z,2.00
2024-03-24T06:18:39.768Z,2.00
2024-03-24T06:21:07.729Z,1.60
2024-03-24T06:23:35.279Z,1.60
2024-03-24T06:26:05.300Z,1.40
2024-03-24T06:28:32.837Z,1.90
2024-03-24T06:31:00.396Z,1.40
2024-03-24T06:33:28.001Z,1.70
2024-03-24T06:35:55.567Z,1.90
2024-03-24T06:38:23.254Z,1.50
2024-03-24T06:40:50.821Z,1.50
2024-03-24T06:43:31.497Z,1.60
2024-03-24T06:45:59.078Z,1.60
2024-03-24T06:48:26.731Z,1.40
2024-03-24T06:50:55.437Z,1.60
2024-03-24T06:53:23.005Z,1.60
2024-03-24T06:55:50.975Z,1.40
2024-03-24T06:58:19.072Z,1.50
2024-03-24T07:00:46.784Z,1.60
2024-03-24T07:03:15.212Z,1.70
2024-03-24T07:05:42.986Z,1.50
2024-03-24T07:08:10.605Z,1.80
2024-03-24T07:10:38.191Z,1.50
2024-03-24T07:13:05.852Z,1.30
2024-03-24T07:15:33.545Z,1.80
2024-03-24T07:18:01.125Z,1.40
2024-03-24T07:20:28.698Z,1.60
2024-03-24T07:22:56.687Z,1.30
2024-03-24T07:25:24.301Z,1.40
2024-03-24T07:27:51.855Z,1.60
2024-03-24T07:30:19.447Z,1.60
2024-03-24T07:32:47.043Z,1.60
2024-03-24T07:35:14.737Z,1.70
2024-03-24T07:37:42.337Z,1.50
2024-03-24T07:40:10.547Z,1.40
2024-03-24T07:42:41.460Z,1.80
2024-03-24T07:45:10.371Z,1.60
2024-03-24T07:47:37.927Z,1.50
2024-03-24T07:50:07.015Z,1.30
2024-03-24T07:52:34.656Z,1.50
2024-03-24T07:55:02.507Z,1.50
2024-03-24T07:57:30.056Z,1.60
2024-03-24T07:59:57.639Z,1.20
2024-03-24T08:02:25.244Z,1.50
2024-03-24T08:04:52.881Z,1.60
2024-03-24T08:07:20.475Z,1.80
2024-03-24T08:09:48.134Z,1.50
2024-03-24T08:12:17.072Z,1.40
2024-03-24T08:14:44.630Z,1.70
2024-03-24T08:17:12.193Z,1.60
2024-03-24T08:19:40.141Z,1.40
2024-03-24T08:22:07.776Z,1.30
2024-03-24T08:24:35.358Z,1.30
2024-03-24T08:27:03.323Z,1.40
2024-03-24T08:29:30.862Z,1.20
2024-03-24T08:31:58.455Z,1.50
2024-03-24T08:34:26.043Z,1.00
2024-03-24T08:36:53.588Z,1.20
2024-03-24T08:39:21.157Z,1.20
2024-03-24T08:41:48.699Z,1.20
2024-03-24T08:44:16.254Z,1.00
2024-03-24T08:46:43.922Z,0.90
2024-03-24T08:49:11.943Z,1.20
2024-03-24T08:51:39.506Z,1.10
2024-03-24T08:54:07.112Z,1.10
2024-03-24T08:56:35.842Z,1.60
2024-03-24T08:59:03.826Z,1.00
2024-03-24T09:01:31.472Z,1.00
2024-03-24T09:03:59.113Z,1.10
2024-03-24T09:06:26.678Z,1.00
2024-03-24T09:08:54.346Z,1.10
2024-03-24T09:11:21.946Z,1.10
2024-03-24T09:13:49.598Z,1.20
2024-03-24T09:16:17.177Z,1.20
2024-03-24T09:18:48.005Z,1.30
2024-03-24T09:21:15.700Z,1.00
2024-03-24T09:23:43.338Z,0.90
2024-03-24T09:26:11.069Z,1.30
2024-03-24T09:28:38.660Z,1.20
2024-03-24T09:31:06.200Z,1.20
2024-03-24T09:33:33.788Z,1.40
2024-03-24T09:36:01.490Z,1.10
2024-03-24T09:38:31.659Z,1.10
2024-03-24T09:41:00.667Z,1.00
2024-03-24T09:43:28.320Z,1.00
2024-03-24T09:45:55.984Z,1.00
2024-03-24T09:48:26.088Z,1.10
2024-03-24T09:50:57.796Z,1.10
2024-03-24T09:55:55.092Z,0.90
2024-03-24T09:58:24.433Z,0.90
2024-03-24T10:00:52.984Z,1.10
2024-03-24T10:03:21.122Z,1.20
2024-03-24T10:05:49.018Z,1.20
2024-03-24T10:08:16.630Z,1.00
2024-03-24T10:10:44.321Z,1.00
2024-03-24T10:13:12.089Z,1.10
2024-03-24T10:15:39.797Z,0.90
2024-03-24T10:18:10.600Z,1.10
2024-03-24T10:20:39.626Z,1.10
2024-03-24T10:23:07.878Z,1.10
2024-03-24T10:25:35.499Z,1.20
2024-03-24T10:28:03.410Z,0.90
2024-03-24T10:30:31.069Z,1.00
2024-03-24T10:32:58.713Z,1.30
2024-03-24T10:35:28.134Z,1.30
2024-03-24T10:37:55.704Z,1.20
2024-03-24T10:40:23.530Z,1.30
2024-03-24T10:42:54.772Z,1.20
2024-03-24T10:48:08.090Z,1.30
2024-03-24T10:50:39.947Z,1.10
2024-03-24T10:53:15.878Z,1.20
2024-03-24T10:55:44.971Z,1.50
2024-03-24T10:58:14.619Z,1.20
2024-03-24T11:00:46.163Z,1.40
2024-03-24T11:03:19.668Z,1.30
2024-03-24T11:05:51.134Z,1.30
2024-03-24T11:08:21.366Z,1.40
2024-03-24T11:10:53.155Z,1.10
2024-03-24T11:13:29.134Z,1.50
2024-03-24T11:15:59.916Z,1.20
2024-03-24T11:18:30.395Z,1.20
2024-03-24T11:21:06.990Z,1.10
2024-03-24T11:23:40.514Z,1.00
2024-03-24T11:26:30.345Z,1.00
2024-03-24T11:28:58.068Z,1.30
2024-03-24T11:31:33.200Z,1.20
2024-03-24T11:34:00.742Z,1.10
2024-03-24T11:36:28.407Z,1.30
2024-03-24T11:38:57.890Z,1.00
2024-03-24T11:41:28.238Z,1.10
2024-03-24T11:44:01.943Z,1.40
2024-03-24T11:46:36.659Z,1.30
2024-03-24T11:49:04.978Z,1.20
2024-03-24T11:51:32.819Z,1.20
2024-03-24T11:54:01.595Z,1.20
2024-03-24T11:56:30.924Z,1.20
2024-03-24T11:58:59.051Z,1.30
2024-03-24T12:01:26.656Z,1.10
2024-03-24T12:03:54.357Z,2.20
2024-03-24T12:06:22.287Z,1.50
2024-03-24T12:08:51.058Z,1.30
2024-03-24T12:11:19.004Z,1.20
2024-03-24T12:13:46.564Z,1.20
2024-03-24T12:16:19.543Z,1.40
2024-03-24T12:18:47.324Z,1.10
2024-03-24T12:21:16.339Z,1.10
2024-03-24T12:23:44.827Z,0.90
2024-03-24T12:26:23.737Z,1.40
2024-03-24T12:28:55.955Z,1.30
2024-03-24T12:31:23.548Z,1.20
2024-03-24T12:33:51.894Z,1.30
2024-03-24T12:36:19.610Z,1.20
2024-03-24T12:38:47.153Z,1.10
2024-03-24T12:41:24.750Z,1.10
2024-03-24T12:43:57.803Z,0.90
2024-03-24T12:46:27.406Z,1.10
2024-03-24T12:48:55.013Z,1.00
2024-03-24T12:51:22.788Z,1.00
2024-03-24T12:54:02.478Z,1.10
2024-03-24T12:56:30.222Z,1.20
2024-03-24T12:58:58.321Z,0.90
2024-03-24T13:01:27.276Z,1.00
2024-03-24T13:03:57.577Z,1.10
2024-03-24T13:06:28.280Z,0.90
2024-03-24T13:08:56.915Z,0.90
2024-03-24T13:11:24.549Z,0.80
2024-03-24T13:13:52.185Z,0.90
2024-03-24T13:16:28.735Z,0.90
2024-03-24T13:19:29.342Z,0.90
2024-03-24T13:22:07.473Z,1.00
2024-03-24T13:24:51.252Z,1.10
2024-03-24T13:27:30.066Z,1.10
2024-03-24T13:30:00.992Z,1.40
2024-03-24T13:32:29.825Z,1.00
2024-03-24T13:34:57.536Z,0.90
2024-03-24T13:37:36.542Z,1.30
2024-03-24T13:40:31.639Z,0.80
2024-03-24T13:43:27.079Z,1.00
2024-03-24T13:46:14.861Z,1.10
2024-03-24T13:48:42.510Z,0.90
2024-03-24T13:51:11.687Z,0.90
2024-03-24T13:53:42.089Z,1.00
2024-03-24T13:56:09.636Z,1.00
2024-03-24T13:58:37.451Z,1.00
2024-03-24T14:01:05.083Z,1.40
2024-03-24T14:03:34.405Z,1.00
2024-03-24T14:06:02.330Z,0.80
2024-03-24T14:08:30.038Z,1.00
2024-03-24T14:10:59.039Z,1.00
2024-03-24T14:13:54.559Z,1.00
2024-03-24T14:16:43.776Z,1.20
2024-03-24T14:19:16.235Z,1.20
2024-03-24T14:21:59.191Z,1.00
2024-03-24T14:25:05.359Z,1.10
2024-03-24T14:27:33.053Z,1.40
2024-03-24T14:30:00.663Z,1.20
2024-03-24T14:32:28.348Z,1.20
2024-03-24T14:34:56.045Z,1.00
2024-03-24T14:37:48.612Z,1.00
2024-03-24T14:40:28.160Z,1.30
2024-03-24T14:43:16.279Z,1.10
2024-03-24T14:46:14.449Z,1.10
2024-03-24T14:48:42.276Z,1.00
2024-03-24T14:51:09.865Z,1.10
2024-03-24T14:53:37.531Z,1.00
2024-03-24T14:56:05.674Z,1.30
2024-03-24T14:58:33.274Z,1.00
2024-03-24T15:01:01.159Z,1.00
2024-03-24T15:03:29.028Z,0.90
2024-03-24T15:05:57.528Z,0.80
2024-03-24T15:08:25.114Z,1.20
2024-03-24T15:10:52.778Z,1.40
2024-03-24T15:13:20.347Z,1.00
2024-03-24T15:15:49.905Z,1.20
2024-03-24T15:18:17.488Z,1.00
2024-03-24T15:20:45.060Z,1.00
2024-03-24T15:23:12.659Z,0.80
2024-03-24T15:25:40.402Z,1.10
2024-03-24T15:28:07.929Z,0.90
2024-03-24T15:30:35.478Z,0.90
2024-03-24T15:33:03.822Z,1.00
2024-03-24T15:35:34.184Z,1.30
2024-03-24T15:38:01.897Z,0.90
2024-03-24T15:40:29.546Z,1.20
2024-03-24T15:42:57.098Z,1.20
2024-03-24T15:45:24.701Z,1.30
2024-03-24T15:47:52.371Z,1.10
2024-03-24T15:50:21.356Z,1.10
2024-03-24T15:52:48.923Z,1.10
2024-03-24T15:55:20.159Z,1.10
2024-03-24T16:00:43.255Z,1.00
2024-03-24T16:03:10.910Z,1.00
2024-03-24T16:05:38.519Z,0.90
2024-03-24T16:08:06.393Z,1.00
2024-03-24T16:10:33.948Z,1.00
2024-03-24T16:13:27.680Z,0.80
2024-03-24T16:15:56.378Z,1.50
2024-03-24T16:18:24.048Z,1.00
2024-03-24T16:21:09.689Z,1.00
2024-03-24T16:23:37.245Z,0.90
2024-03-24T16:26:04.797Z,1.10
2024-03-24T16:28:32.393Z,0.80
2024-03-24T16:31:00.137Z,1.10
2024-03-24T16:33:29.123Z,1.10
2024-03-24T16:35:58.226Z,0.90
2024-03-24T16:38:26.083Z,0.90
2024-03-24T16:40:54.989Z,1.20
2024-03-24T16:43:23.298Z,1.10
2024-03-24T16:45:51.016Z,1.30
2024-03-24T16:48:18.923Z,1.50
2024-03-24T16:50:47.216Z,1.30
2024-03-24T16:53:15.497Z,1.40
2024-03-24T16:55:43.979Z,1.30
2024-03-24T16:58:12.391Z,1.10
2024-03-24T17:00:43.994Z,1.70
2024-03-24T17:03:11.734Z,10.40
2024-03-24T17:05:41.267Z,3.40
2024-03-24T17:08:09.255Z,4.00
2024-03-24T17:10:39.150Z,6.10
2024-03-24T17:13:06.749Z,1.60
2024-03-24T17:15:34.293Z,7.90
2024-03-24T17:18:02.012Z,6.10
2024-03-24T17:20:29.905Z,4.50
2024-03-24T17:22:57.502Z,2.10
2024-03-24T17:25:25.136Z,1.70
2024-03-24T17:27:52.698Z,1.40
2024-03-24T17:30:20.552Z,1.30
2024-03-24T17:32:48.984Z,1.10
2024-03-24T17:35:16.708Z,1.10
2024-03-24T17:37:44.266Z,1.10
2024-03-24T17:40:12.879Z,1.20
2024-03-24T17:42:41.583Z,6.60
2024-03-24T17:45:12.732Z,4.10
2024-03-24T17:47:40.383Z,4.00
2024-03-24T17:50:08.848Z,3.90
2024-03-24T17:52:36.523Z,3.40
2024-03-24T17:55:05.815Z,1.70
2024-03-24T17:57:34.215Z,1.40
2024-03-24T18:00:04.523Z,1.30
2024-03-24T18:02:38.004Z,1.30
2024-03-24T18:05:09.204Z,1.70
2024-03-24T18:07:55.619Z,1.60
2024-03-24T18:10:25.167Z,2.30
2024-03-24T18:12:52.962Z,2.20
2024-03-24T18:15:20.957Z,1.80
2024-03-24T18:17:51.684Z,1.40
2024-03-24T18:20:19.384Z,1.80
2024-03-24T18:22:48.280Z,1.60
2024-03-24T18:25:18.449Z,2.10
2024-03-24T18:27:46.269Z,3.60
2024-03-24T18:30:14.442Z,3.10
2024-03-24T18:32:42.590Z,2.20
2024-03-24T18:35:10.209Z,2.40
2024-03-24T18:37:39.169Z,1.80
2024-03-24T18:40:07.580Z,2.00
2024-03-24T18:42:35.144Z,2.40
2024-03-24T18:45:04.810Z,2.10
2024-03-24T18:47:32.504Z,2.90
2024-03-24T18:50:00.277Z,3.30
2024-03-24T18:52:27.976Z,3.60
2024-03-24T18:54:55.644Z,4.10
2024-03-24T18:57:23.568Z,5.50
2024-03-24T18:59:51.155Z,6.60
2024-03-24T19:02:18.714Z,7.80
2024-03-24T19:04:46.336Z,9.30
2024-03-24T19:07:13.966Z,9.60
2024-03-24T19:09:41.524Z,9.50
2024-03-24T19:12:09.358Z,13.40
2024-03-24T19:14:36.934Z,15.70
2024-03-24T19:17:06.376Z,16.40
2024-03-24T19:19:33.966Z,16.30
2024-03-24T19:22:02.400Z,15.10
2024-03-24T19:24:29.945Z,13.40
2024-03-24T19:26:57.486Z,13.10
2024-03-24T19:29:25.048Z,12.60
2024-03-24T19:31:52.642Z,12.00
2024-03-24T19:34:20.244Z,9.60
2024-03-24T19:36:47.895Z,10.10
2024-03-24T19:39:15.608Z,9.80
2024-03-24T19:41:44.939Z,14.20
2024-03-24T19:44:12.613Z,40.10
2024-03-24T19:46:40.487Z,12.50
2024-03-24T19:49:08.079Z,10.10
2024-03-24T19:51:36.195Z,9.50
2024-03-24T19:54:03.788Z,8.50
2024-03-24T19:56:31.335Z,7.60
2024-03-24T19:58:58.893Z,7.60
2024-03-24T20:01:28.328Z,6.20
2024-03-24T20:03:55.927Z,6.30
2024-03-24T20:06:23.488Z,5.60
2024-03-24T20:08:51.032Z,5.40
2024-03-24T20:11:19.035Z,5.40
2024-03-24T20:13:46.622Z,5.20
2024-03-24T20:16:15.860Z,5.60
2024-03-24T20:18:43.428Z,5.00
2024-03-24T20:21:11.042Z,4.70
2024-03-24T20:23:38.623Z,4.80
2024-03-24T20:26:06.266Z,5.10
2024-03-24T20:28:33.817Z,4.90
2024-03-24T20:31:02.185Z,5.90
2024-03-24T20:33:29.880Z,5.70
2024-03-24T20:35:57.678Z,8.60
2024-03-24T20:38:25.337Z,10.90
2024-03-24T20:40:52.962Z,11.20
2024-03-24T20:43:21.741Z,10.00
2024-03-24T20:45:49.326Z,8.20
2024-03-24T20:48:16.882Z,6.80
2024-03-24T20:50:44.515Z,7.60
2024-03-24T20:53:12.388Z,5.90
2024-03-24T20:55:39.990Z,5.60
2024-03-24T20:58:07.660Z,6.10
2024-03-24T21:00:36.262Z,4.30
2024-03-24T21:03:04.213Z,3.70
2024-03-24T21:05:31.826Z,4.00
2024-03-24T21:07:59.386Z,3.50
2024-03-24T21:10:26.980Z,3.80
2024-03-24T21:12:54.625Z,4.70
2024-03-24T21:15:22.421Z,5.70
2024-03-24T21:17:50.006Z,4.90
2024-03-24T21:20:17.721Z,6.40
2024-03-24T21:22:45.478Z,5.40
2024-03-24T21:25:13.431Z,5.90
2024-03-24T21:27:41.862Z,5.80
2024-03-24T21:30:10.116Z,6.50
2024-03-24T21:32:37.793Z,6.30
2024-03-24T21:35:07.088Z,5.90
2024-03-24T21:37:54.344Z,5.50
2024-03-24T21:40:40.484Z,5.80
2024-03-24T21:43:08.344Z,5.40
2024-03-24T21:45:36.200Z,5.00
2024-03-24T21:48:04.580Z,4.60
2024-03-24T21:50:32.255Z,4.60
2024-03-24T21:52:59.847Z,4.30
2024-03-24T21:55:27.496Z,4.50
2024-03-24T21:57:55.986Z,4.20
2024-03-24T22:00:23.581Z,4.50
2024-03-24T22:02:51.220Z,3.90
2024-03-24T22:05:19.978Z,4.00
2024-03-24T22:08:03.739Z,3.80
2024-03-24T22:10:35.231Z,3.20
2024-03-24T22:13:02.938Z,3.60
2024-03-24T22:15:31.110Z,4.10
2024-03-24T22:17:59.593Z,3.50
2024-03-24T22:20:27.216Z,3.70
2024-03-24T22:22:54.811Z,3.40
2024-03-24T22:25:22.455Z,3.70
2024-03-24T22:27:50.100Z,3.80
2024-03-24T22:30:17.795Z,4.00
2024-03-24T22:32:46.727Z,4.50
2024-03-24T22:35:14.460Z,4.30
2024-03-24T22:37:42.251Z,4.30
2024-03-24T22:40:11.374Z,4.10
2024-03-24T22:42:39.889Z,4.30
2024-03-24T22:45:07.749Z,4.40
2024-03-24T22:47:35.417Z,4.40
2024-03-24T22:50:03.417Z,4.00
2024-03-24T22:52:31.014Z,4.30
2024-03-24T22:54:58.669Z,4.40
2024-03-24T22:57:26.232Z,4.90
2024-03-24T22:59:53.873Z,4.50
2024-03-24T23:02:21.644Z,4.60
2024-03-24T23:04:49.297Z,4.50
2024-03-24T23:07:16.976Z,4.90
2024-03-24T23:09:46.559Z,5.20
2024-03-24T23:12:14.119Z,5.30
2024-03-24T23:14:41.676Z,5.00
2024-03-24T23:17:09.337Z,4.90
2024-03-24T23:19:36.891Z,4.90
2024-03-24T23:22:04.663Z,4.20
2024-03-24T23:24:32.196Z,4.80
2024-03-24T23:26:59.992Z,4.90
2024-03-24T23:29:27.756Z,5.30
2024-03-24T23:31:55.474Z,4.70
2024-03-24T23:34:23.711Z,5.50
2024-03-24T23:36:51.259Z,4.90
2024-03-24T23:39:18.820Z,5.00
2024-03-24T23:41:46.377Z,4.80
2024-03-24T23:44:13.999Z,4.90
2024-03-24T23:46:41.680Z,4.90
2024-03-24T23:49:09.314Z,5.30
2024-03-24T23:51:37.760Z,5.50
2024-03-24T23:54:06.005Z,5.10
2024-03-24T23:56:33.778Z,4.70
2024-03-24T23:59:01.360Z,4.30
